Time;durP1;ratioP1;P1;durP2;ratioP2;P2;SDS_P1;SDS_P2;PMS_P1;PMS_P2;Temp;Humidity;BMP_temperature;BMP_pressure;BME280_temperature;BME280_humidity;BME280_pressure;Samples;Min_cycle;Max_cycle;Signal;HPM_P1;HPM_P2
2021/12/24 00:02:13;;;;;;;50.03;32.50;;;8.00;99.90;;;;;;5036116;28;20456;-78
2021/12/24 00:04:40;;;;;;;50.93;33.13;;;8.10;99.90;;;;;;5037236;28;20974;-79
2021/12/24 00:07:07;;;;;;;56.57;35.30;;;8.10;99.90;;;;;;5036511;28;20837;-77
2021/12/24 00:09:36;;;;;;;48.13;31.33;;;8.10;99.90;;;;;;5021405;28;20468;-78
2021/12/24 00:12:11;;;;;;;53.57;31.73;;;8.10;99.90;;;;;;5026425;28;20480;-78
2021/12/24 00:14:42;;;;;;;46.37;30.37;;;8.10;99.90;;;;;;5036508;28;20455;-78
2021/12/24 00:17:13;;;;;;;53.50;30.27;;;8.10;99.90;;;;;;5036467;28;20464;-78
2021/12/24 00:19:46;;;;;;;50.77;29.77;;;8.10;99.90;;;;;;5036683;28;20460;-78
2021/12/24 00:22:42;;;;;;;42.13;28.10;;;8.10;99.90;;;;;;5035941;28;20483;-78
2021/12/24 00:36:07;;;;;;;38.27;24.93;;;8.20;99.90;;;;;;5036013;28;21041;-78
2021/12/24 00:38:34;;;;;;;35.73;25.20;;;8.20;99.90;;;;;;5036019;28;20453;-78
2021/12/24 00:41:02;;;;;;;33.40;24.03;;;8.20;99.90;;;;;;5034940;28;20544;-78
2021/12/24 00:43:29;;;;;;;35.97;25.23;;;8.20;99.90;;;;;;5029131;28;20474;-79
2021/12/24 00:45:56;;;;;;;36.73;24.53;;;8.20;99.90;;;;;;5027301;28;21003;-78
2021/12/24 00:48:23;;;;;;;37.17;25.63;;;8.20;99.90;;;;;;5036177;28;20562;-78
2021/12/24 00:50:57;;;;;;;36.73;26.37;;;8.20;99.90;;;;;;5036420;28;20455;-78
2021/12/24 00:56:13;;;;;;;38.40;28.23;;;8.30;99.90;;;;;;5016808;28;20435;-78
2021/12/24 00:58:40;;;;;;;46.03;27.57;;;8.30;99.90;;;;;;5022712;28;20448;-78
2021/12/24 01:01:09;;;;;;;41.80;28.07;;;8.30;99.90;;;;;;5021479;28;20465;-78
2021/12/24 01:03:36;;;;;;;48.03;30.73;;;8.30;99.90;;;;;;5021870;28;20538;-79
2021/12/24 01:06:05;;;;;;;38.17;26.33;;;8.20;99.90;;;;;;5034747;28;20445;-78
2021/12/24 01:08:32;;;;;;;33.70;23.77;;;8.30;99.90;;;;;;5032080;28;20453;-78
2021/12/24 01:11:01;;;;;;;33.70;24.73;;;8.30;99.90;;;;;;5016035;28;20450;-79
2021/12/24 01:13:31;;;;;;;32.73;24.00;;;8.30;99.90;;;;;;5030496;28;20496;-79
2021/12/24 01:16:01;;;;;;;37.13;25.80;;;8.20;99.90;;;;;;5036496;28;20459;-78
2021/12/24 01:18:38;;;;;;;29.63;22.20;;;8.20;99.90;;;;;;5036131;28;20492;-79
2021/12/24 01:21:19;;;;;;;30.80;23.20;;;8.30;99.90;;;;;;5035687;28;20932;-79
2021/12/24 01:23:50;;;;;;;28.40;19.40;;;8.30;99.90;;;;;;5037730;28;20469;-79
2021/12/24 01:26:22;;;;;;;23.60;19.27;;;8.30;99.90;;;;;;5040447;28;20464;-78
2021/12/24 01:29:29;;;;;;;27.67;21.57;;;8.30;99.90;;;;;;5039393;28;20465;-78
2021/12/24 01:40:21;;;;;;;23.37;18.07;;;8.40;99.90;;;;;;5035274;28;20540;-77
2021/12/24 01:42:48;;;;;;;23.50;18.03;;;8.40;99.90;;;;;;5035684;28;20460;-77
2021/12/24 01:45:22;;;;;;;25.00;19.20;;;8.40;99.90;;;;;;5035260;28;20512;-78
2021/12/24 01:47:51;;;;;;;26.07;18.03;;;8.40;99.90;;;;;;5035907;28;20802;-78
2021/12/24 01:50:18;;;;;;;30.70;20.10;;;8.40;99.90;;;;;;5034144;28;20442;-78
2021/12/24 01:52:48;;;;;;;21.97;18.13;;;8.40;99.90;;;;;;5035720;28;20484;-78
2021/12/24 01:55:15;;;;;;;26.53;19.87;;;8.50;99.90;;;;;;5035789;28;20506;-78
2021/12/24 01:57:43;;;;;;;24.07;18.97;;;8.50;99.90;;;;;;5036388;28;20957;-78
2021/12/24 02:00:13;;;;;;;28.33;21.60;;;8.50;99.90;;;;;;5035427;28;20441;-78
2021/12/24 02:02:41;;;;;;;29.13;21.10;;;8.50;99.90;;;;;;5035709;28;20503;-78
2021/12/24 02:05:08;;;;;;;27.60;20.80;;;8.50;99.90;;;;;;5035395;28;20468;-78
2021/12/24 02:07:36;;;;;;;28.60;20.97;;;8.50;99.90;;;;;;5034610;28;20447;-79
2021/12/24 02:10:04;;;;;;;29.30;23.00;;;8.50;99.90;;;;;;5020109;28;20463;-77
2021/12/24 02:12:32;;;;;;;28.63;21.17;;;8.50;99.90;;;;;;5024809;28;20485;-78
2021/12/24 02:15:00;;;;;;;35.97;24.73;;;8.50;99.90;;;;;;5035190;28;20442;-78
2021/12/24 02:17:46;;;;;;;28.50;22.67;;;8.50;99.90;;;;;;5035195;28;20460;-78
2021/12/24 02:28:38;;;;;;;34.07;23.30;;;8.50;99.90;;;;;;5035310;28;20584;-79
2021/12/24 02:31:09;;;;;;;30.00;22.83;;;8.50;99.90;;;;;;5015639;28;20482;-78
2021/12/24 02:33:36;;;;;;;30.90;24.63;;;8.60;99.90;;;;;;5026642;28;20488;-79
2021/12/24 02:36:05;;;;;;;36.20;25.30;;;8.60;99.90;;;;;;5035505;28;20449;-78
2021/12/24 02:38:34;;;;;;;37.40;25.90;;;8.60;99.90;;;;;;5033464;28;20453;-79
2021/12/24 02:41:01;;;;;;;36.43;25.80;;;8.60;99.90;;;;;;5035870;28;20449;-78
2021/12/24 02:43:29;;;;;;;42.17;26.80;;;8.60;99.90;;;;;;5036550;28;20477;-78
2021/12/24 02:46:05;;;;;;;35.80;25.43;;;8.60;99.90;;;;;;5036936;28;20452;-79
2021/12/24 02:54:16;;;;;;;42.40;29.93;;;8.60;99.90;;;;;;5030109;28;21026;-79
2021/12/24 02:56:48;;;;;;;42.10;29.20;;;8.60;99.90;;;;;;5026362;28;20975;-79
2021/12/24 02:59:17;;;;;;;43.53;29.30;;;8.70;99.90;;;;;;5035696;28;20459;-79
2021/12/24 03:01:47;;;;;;;49.57;31.07;;;8.70;99.90;;;;;;5035725;28;20489;-79
2021/12/24 03:04:14;;;;;;;46.60;31.10;;;8.70;99.90;;;;;;5035465;28;20477;-78
2021/12/24 03:06:45;;;;;;;53.13;33.40;;;8.70;99.90;;;;;;5036212;28;20850;-79
2021/12/24 03:09:15;;;;;;;40.57;29.07;;;8.60;99.90;;;;;;5034494;28;20473;-78
2021/12/24 03:11:42;;;;;;;51.20;34.23;;;8.70;99.90;;;;;;5029000;28;20544;-79
2021/12/24 03:14:10;;;;;;;38.33;27.70;;;8.70;99.90;;;;;;5033833;28;20488;-79
2021/12/24 03:16:38;;;;;;;39.53;27.07;;;8.70;99.90;;;;;;5034891;28;20457;-79
2021/12/24 03:19:07;;;;;;;42.33;30.07;;;8.70;99.90;;;;;;5035026;28;20456;-79
2021/12/24 03:21:39;;;;;;;42.10;27.10;;;8.70;99.90;;;;;;5034483;28;20548;-79
2021/12/24 03:26:52;;;;;;;39.27;27.33;;;8.70;99.90;;;;;;5033894;28;20536;-79
2021/12/24 03:29:19;;;;;;;35.37;26.27;;;8.70;99.90;;;;;;5033395;28;20457;-79
2021/12/24 03:31:47;;;;;;;36.23;26.57;;;8.70;99.90;;;;;;5034243;28;20449;-78
2021/12/24 03:34:17;;;;;;;31.10;25.33;;;8.70;99.90;;;;;;5034592;28;20503;-79
2021/12/24 03:36:44;;;;;;;32.77;26.03;;;8.80;99.90;;;;;;5035336;28;20912;-79
2021/12/24 03:39:13;;;;;;;40.73;28.90;;;8.80;99.90;;;;;;5035121;28;20455;-79
2021/12/24 03:41:40;;;;;;;38.47;27.23;;;8.80;99.90;;;;;;5035346;28;20460;-79
2021/12/24 03:44:11;;;;;;;32.07;25.20;;;8.80;99.90;;;;;;5032743;28;20500;-78
2021/12/24 03:46:47;;;;;;;33.50;25.03;;;8.80;99.90;;;;;;5015487;28;20458;-78
2021/12/24 03:49:19;;;;;;;40.10;26.23;;;8.80;99.90;;;;;;5035523;28;20458;-78
2021/12/24 03:51:53;;;;;;;38.97;28.23;;;8.80;99.90;;;;;;5014434;28;20485;-78
2021/12/24 03:57:06;;;;;;;42.47;30.90;;;8.80;99.90;;;;;;5033405;28;20448;-78
2021/12/24 03:59:32;;;;;;;44.00;32.17;;;8.80;99.90;;;;;;5033440;28;20464;-78
2021/12/24 04:01:59;;;;;;;42.40;29.17;;;8.80;99.90;;;;;;5032457;28;20984;-79
2021/12/24 04:04:26;;;;;;;42.63;29.67;;;8.90;99.90;;;;;;5033882;28;20843;-78
2021/12/24 04:06:53;;;;;;;39.43;29.67;;;8.90;99.90;;;;;;5033566;28;20962;-79
2021/12/24 04:09:23;;;;;;;49.57;33.20;;;8.90;99.90;;;;;;5033475;28;20458;-79
2021/12/24 04:11:51;;;;;;;47.70;34.43;;;8.90;99.90;;;;;;5033802;28;20871;-78
2021/12/24 04:14:18;;;;;;;48.50;34.50;;;8.90;99.90;;;;;;5033686;28;20498;-79
2021/12/24 04:16:45;;;;;;;47.03;33.40;;;8.90;99.90;;;;;;5033415;28;20472;-78
2021/12/24 04:19:25;;;;;;;59.40;38.73;;;8.90;99.90;;;;;;5031153;28;20458;-78
2021/12/24 04:24:54;;;;;;;50.60;34.20;;;8.90;99.90;;;;;;5032507;28;21031;-78
2021/12/24 04:27:24;;;;;;;48.13;33.47;;;8.90;99.90;;;;;;5032920;28;20474;-78
2021/12/24 04:29:59;;;;;;;50.80;33.97;;;8.90;99.90;;;;;;5032931;28;20467;-77
2021/12/24 04:32:35;;;;;;;50.87;34.90;;;8.90;99.90;;;;;;5032148;28;20856;-78
2021/12/24 04:35:16;;;;;;;52.33;34.83;;;8.90;99.90;;;;;;5030344;28;20662;-78
2021/12/24 04:38:07;;;;;;;50.53;34.73;;;8.90;99.90;;;;;;5032659;28;20456;-78
2021/12/24 04:51:41;;;;;;;49.77;34.37;;;8.90;99.90;;;;;;5018489;28;20437;-78
2021/12/24 05:02:44;;;;;;;47.10;34.80;;;8.90;99.90;;;;;;5011770;28;20543;-79
2021/12/24 05:05:20;;;;;;;50.27;33.90;;;8.90;99.90;;;;;;5036439;28;20452;-79
2021/12/24 05:10:35;;;;;;;50.87;35.63;;;9.00;99.90;;;;;;5036113;28;20448;-79
2021/12/24 05:13:04;;;;;;;54.20;36.50;;;9.00;99.90;;;;;;5036915;28;20506;-77
2021/12/24 05:15:31;;;;;;;46.67;34.97;;;9.00;99.90;;;;;;5036935;28;20523;-79
2021/12/24 05:18:11;;;;;;;53.97;35.50;;;9.00;99.90;;;;;;5037600;28;20475;-80
2021/12/24 05:23:23;;;;;;;56.67;34.17;;;8.90;99.90;;;;;;5055114;28;20515;-80
2021/12/24 05:25:51;;;;;;;45.83;33.23;;;9.00;99.90;;;;;;5023021;28;20457;-78
2021/12/24 05:28:20;;;;;;;36.17;26.03;;;9.00;99.90;;;;;;5022677;28;20457;-79
2021/12/24 05:30:48;;;;;;;33.53;26.17;;;9.20;99.90;;;;;;5039075;28;20451;-80
2021/12/24 05:33:16;;;;;;;31.63;24.40;;;9.40;99.90;;;;;;5029617;28;20478;-77
2021/12/24 05:35:44;;;;;;;41.23;27.63;;;9.60;99.90;;;;;;5036519;28;20523;-80
2021/12/24 05:38:11;;;;;;;41.33;28.80;;;9.40;99.90;;;;;;5035529;28;20453;-79
2021/12/24 05:40:38;;;;;;;37.63;25.93;;;9.30;99.90;;;;;;5035617;28;20455;-78
2021/12/24 05:43:05;;;;;;;37.50;27.03;;;9.30;99.90;;;;;;5036229;28;20474;-78
2021/12/24 05:45:33;;;;;;;49.23;31.10;;;9.20;99.90;;;;;;5031939;28;20466;-79
2021/12/24 05:48:00;;;;;;;50.60;33.40;;;9.10;99.90;;;;;;5035146;28;20453;-79
2021/12/24 05:50:26;;;;;;;40.10;31.00;;;9.00;99.90;;;;;;5035968;28;20429;-80
2021/12/24 05:52:53;;;;;;;39.93;27.47;;;9.10;99.90;;;;;;5035652;28;20969;-79
2021/12/24 05:55:20;;;;;;;46.43;29.83;;;9.00;99.90;;;;;;5035656;28;20489;-79
2021/12/24 05:57:47;;;;;;;46.60;31.00;;;9.00;99.90;;;;;;5034840;28;20453;-80
2021/12/24 06:00:15;;;;;;;37.43;27.93;;;9.00;99.90;;;;;;5034148;28;20466;-79
2021/12/24 06:02:43;;;;;;;49.20;30.30;;;9.10;99.90;;;;;;5036282;28;20889;-80
2021/12/24 06:05:10;;;;;;;53.80;29.77;;;9.00;99.90;;;;;;5033709;28;20454;-80
2021/12/24 06:07:37;;;;;;;42.43;29.80;;;9.00;99.90;;;;;;5035809;28;20445;-78
2021/12/24 06:10:05;;;;;;;45.83;29.77;;;9.00;99.90;;;;;;5034607;28;20464;-78
2021/12/24 06:12:31;;;;;;;44.20;31.67;;;9.00;99.90;;;;;;5029850;28;20486;-79
2021/12/24 06:15:03;;;;;;;44.97;32.23;;;9.00;99.90;;;;;;5026664;28;20492;-79
2021/12/24 06:17:30;;;;;;;49.20;32.90;;;9.00;99.90;;;;;;5035169;28;20877;-79
2021/12/24 06:19:59;;;;;;;46.10;29.73;;;9.00;99.90;;;;;;5034361;28;20450;-79
2021/12/24 06:22:25;;;;;;;44.67;33.30;;;9.00;99.90;;;;;;5035070;28;20473;-79
2021/12/24 06:24:52;;;;;;;49.10;32.60;;;9.00;99.90;;;;;;5034926;28;20451;-79
2021/12/24 06:27:19;;;;;;;47.57;33.00;;;9.00;99.90;;;;;;5034609;28;20463;-78
2021/12/24 06:29:46;;;;;;;57.73;35.77;;;9.00;99.90;;;;;;5031581;28;20458;-79
2021/12/24 06:32:12;;;;;;;55.07;33.53;;;8.90;99.90;;;;;;5034747;28;20943;-79
2021/12/24 06:34:39;;;;;;;50.70;34.70;;;9.00;99.90;;;;;;5034313;28;20480;-79
2021/12/24 06:37:08;;;;;;;52.10;33.60;;;9.00;99.90;;;;;;5034575;28;20450;-80
2021/12/24 06:39:35;;;;;;;49.97;33.67;;;9.00;99.90;;;;;;5035137;28;20452;-79
2021/12/24 06:42:02;;;;;;;51.37;32.50;;;9.00;99.90;;;;;;5034685;28;20466;-77
2021/12/24 06:44:29;;;;;;;49.43;32.90;;;9.00;99.90;;;;;;5034640;28;20455;-79
2021/12/24 06:46:56;;;;;;;46.07;32.43;;;9.00;99.90;;;;;;5033024;28;20500;-80
2021/12/24 06:49:23;;;;;;;44.73;30.97;;;9.00;99.90;;;;;;5034679;28;20451;-79
2021/12/24 06:51:50;;;;;;;48.13;32.20;;;9.00;99.90;;;;;;5034262;28;20453;-79
2021/12/24 06:54:18;;;;;;;49.40;31.23;;;9.00;99.90;;;;;;5034576;28;20486;-80
2021/12/24 06:56:45;;;;;;;43.50;28.47;;;9.00;99.90;;;;;;5025084;28;20459;-79
2021/12/24 06:59:11;;;;;;;47.90;28.20;;;9.00;99.90;;;;;;5035140;28;20463;-79
2021/12/24 07:01:38;;;;;;;39.30;25.90;;;9.00;99.90;;;;;;5026486;28;20838;-78
2021/12/24 07:04:05;;;;;;;39.47;25.67;;;9.00;99.90;;;;;;5019664;28;20483;-79
2021/12/24 07:06:32;;;;;;;45.93;26.80;;;9.00;99.90;;;;;;5025428;28;20460;-79
2021/12/24 07:08:59;;;;;;;46.53;26.83;;;9.00;99.90;;;;;;5028554;28;20461;-81
2021/12/24 07:11:27;;;;;;;43.63;25.80;;;9.00;99.90;;;;;;5030632;28;20449;-80
2021/12/24 07:13:54;;;;;;;43.40;27.90;;;9.00;99.90;;;;;;5047698;28;20493;-80
2021/12/24 07:16:21;;;;;;;37.70;25.50;;;9.00;99.90;;;;;;5049484;28;20530;-79
2021/12/24 07:18:48;;;;;;;44.10;27.00;;;9.00;99.90;;;;;;5047532;28;20516;-81
2021/12/24 07:21:15;;;;;;;39.93;29.20;;;9.10;99.90;;;;;;5045790;28;20900;-79
2021/12/24 07:23:41;;;;;;;45.53;29.67;;;9.00;99.90;;;;;;5030510;28;20462;-79
2021/12/24 07:26:08;;;;;;;45.77;29.20;;;9.00;99.90;;;;;;5028311;28;20945;-80
2021/12/24 07:28:36;;;;;;;50.23;30.17;;;9.00;99.90;;;;;;5031542;28;20846;-80
2021/12/24 07:31:03;;;;;;;43.60;29.07;;;9.00;99.90;;;;;;5038344;28;20456;-81
2021/12/24 07:33:30;;;;;;;44.07;28.20;;;9.00;99.90;;;;;;5036853;28;20550;-81
2021/12/24 07:35:57;;;;;;;35.50;26.47;;;9.00;99.90;;;;;;5037319;28;20492;-79
2021/12/24 07:38:24;;;;;;;40.97;28.63;;;9.00;99.90;;;;;;5032143;28;20825;-79
2021/12/24 07:40:51;;;;;;;45.50;27.27;;;9.00;99.90;;;;;;5026072;28;20457;-80
2021/12/24 07:43:18;;;;;;;40.13;26.90;;;9.10;99.90;;;;;;5026788;28;21018;-80
2021/12/24 07:45:48;;;;;;;37.63;25.93;;;9.00;99.90;;;;;;5026161;28;20857;-80
2021/12/24 07:48:16;;;;;;;49.73;29.23;;;9.00;99.90;;;;;;5028343;28;20826;-78
2021/12/24 07:53:29;;;;;;;43.87;27.20;;;9.10;99.90;;;;;;5041677;28;20506;-79
2021/12/24 07:55:58;;;;;;;42.53;27.83;;;9.10;99.90;;;;;;5042091;28;20485;-80
2021/12/24 07:58:25;;;;;;;39.63;26.50;;;9.10;99.90;;;;;;5039491;28;20511;-80
2021/12/24 08:00:53;;;;;;;41.70;24.67;;;9.20;99.90;;;;;;5041128;28;20859;-81
2021/12/24 08:03:20;;;;;;;43.03;25.60;;;9.20;99.90;;;;;;5043020;28;20547;-82
2021/12/24 08:05:48;;;;;;;38.27;25.40;;;9.20;99.90;;;;;;5044845;28;20463;-83
2021/12/24 08:08:16;;;;;;;37.90;26.07;;;9.30;99.90;;;;;;5038978;28;21035;-81
2021/12/24 08:10:43;;;;;;;43.05;31.58;;;9.30;99.90;;;;;;5035860;28;20495;-81
2021/12/24 08:13:10;;;;;;;38.93;28.93;;;9.20;99.90;;;;;;5040951;28;20882;-81
2021/12/24 08:15:37;;;;;;;40.03;26.37;;;9.30;99.90;;;;;;5044297;28;20855;-80
2021/12/24 08:18:05;;;;;;;41.37;27.90;;;9.30;99.90;;;;;;5062993;28;20513;-81
2021/12/24 08:20:32;;;;;;;42.30;27.13;;;9.30;99.90;;;;;;5040315;28;20980;-80
2021/12/24 08:22:59;;;;;;;45.27;30.97;;;9.30;99.90;;;;;;5050303;28;20519;-80
2021/12/24 08:25:26;;;;;;;41.43;28.00;;;9.30;99.90;;;;;;5052187;28;20894;-80
2021/12/24 08:27:53;;;;;;;98.43;56.23;;;9.30;99.90;;;;;;5057311;28;20444;-80
2021/12/24 08:30:20;;;;;;;55.67;35.30;;;9.30;99.90;;;;;;5031661;28;20454;-80
2021/12/24 08:32:47;;;;;;;35.97;26.00;;;9.20;99.90;;;;;;5050264;28;20472;-81
2021/12/24 08:35:20;;;;;;;36.50;25.77;;;9.30;99.90;;;;;;5041193;28;20473;-80
2021/12/24 08:37:47;;;;;;;42.10;25.30;;;9.30;99.90;;;;;;5038126;28;20489;-81
2021/12/24 08:40:14;;;;;;;41.73;23.80;;;9.30;99.90;;;;;;5050809;28;21249;-79
2021/12/24 08:42:42;;;;;;;33.10;25.60;;;9.30;99.90;;;;;;5035037;28;20483;-81
2021/12/24 08:45:09;;;;;;;36.43;22.43;;;9.30;99.90;;;;;;5044609;28;20442;-82
2021/12/24 08:47:36;;;;;;;34.70;23.53;;;9.30;99.90;;;;;;5039485;28;20464;-81
2021/12/24 08:50:05;;;;;;;36.90;25.23;;;9.30;99.90;;;;;;5049194;28;21104;-80
2021/12/24 08:52:33;;;;;;;40.93;22.73;;;9.20;99.90;;;;;;5049763;28;20817;-81
2021/12/24 08:55:00;;;;;;;39.20;24.00;;;9.30;99.90;;;;;;5055766;28;20486;-80
2021/12/24 08:57:27;;;;;;;30.47;21.87;;;9.30;99.90;;;;;;5046720;28;20514;-80
2021/12/24 08:59:54;;;;;;;34.20;21.80;;;9.30;99.90;;;;;;5044805;28;20454;-81
2021/12/24 09:02:20;;;;;;;31.07;22.47;;;9.30;99.90;;;;;;5049014;22;20551;-82
2021/12/24 09:04:47;;;;;;;31.23;20.30;;;9.30;99.90;;;;;;5035853;28;20442;-80
2021/12/24 09:07:14;;;;;;;33.60;21.73;;;9.30;99.90;;;;;;5034171;28;20821;-82
2021/12/24 09:09:42;;;;;;;42.77;22.23;;;9.40;99.90;;;;;;5044030;28;20449;-83
2021/12/24 09:12:09;;;;;;;33.37;22.70;;;9.40;99.90;;;;;;5038655;28;20972;-78
2021/12/24 09:14:37;;;;;;;37.00;20.40;;;9.40;99.90;;;;;;5045589;28;20515;-84
2021/12/24 09:17:04;;;;;;;34.53;21.53;;;9.50;99.90;;;;;;5049541;28;20454;-81
2021/12/24 09:19:33;;;;;;;31.43;20.40;;;9.50;99.90;;;;;;5047907;28;20821;-79
2021/12/24 09:22:00;;;;;;;33.07;18.53;;;9.50;99.90;;;;;;5046950;28;20462;-79
2021/12/24 09:24:29;;;;;;;33.23;21.57;;;9.60;99.90;;;;;;5060828;28;20481;-80
2021/12/24 09:26:58;;;;;;;26.97;18.33;;;9.60;99.90;;;;;;5056967;28;20461;-80
2021/12/24 09:29:26;;;;;;;28.33;19.80;;;9.60;99.90;;;;;;5040058;28;20452;-82
2021/12/24 09:31:54;;;;;;;34.80;18.23;;;9.50;99.90;;;;;;5037563;28;20450;-80
2021/12/24 09:34:20;;;;;;;36.67;18.57;;;9.60;99.90;;;;;;5037401;28;20560;-78
2021/12/24 09:36:47;;;;;;;27.50;17.07;;;9.60;99.90;;;;;;5046681;28;20456;-82
2021/12/24 09:39:15;;;;;;;31.63;17.70;;;9.70;99.90;;;;;;5036976;28;20453;-81
2021/12/24 09:41:41;;;;;;;35.40;20.40;;;9.70;99.90;;;;;;5046354;28;20511;-83
2021/12/24 09:44:10;;;;;;;34.80;21.87;;;9.60;99.90;;;;;;5041427;28;21004;-81
2021/12/24 09:46:42;;;;;;;37.57;23.03;;;9.60;99.90;;;;;;5039706;28;20456;-80
2021/12/24 09:49:09;;;;;;;39.00;22.10;;;9.60;99.90;;;;;;5055793;28;20514;-81
2021/12/24 09:51:38;;;;;;;26.73;19.90;;;9.50;99.90;;;;;;5056089;28;20982;-81
2021/12/24 09:54:10;;;;;;;33.37;21.83;;;9.50;99.90;;;;;;5021375;28;20476;-79
2021/12/24 09:56:37;;;;;;;35.77;22.83;;;9.60;99.90;;;;;;5054111;28;20495;-80
2021/12/24 09:59:04;;;;;;;33.53;21.57;;;9.70;99.90;;;;;;5052176;28;20480;-80
2021/12/24 10:01:36;;;;;;;31.63;19.80;;;9.60;99.90;;;;;;5039820;28;20440;-80
2021/12/24 10:04:06;;;;;;;38.40;20.37;;;9.60;99.90;;;;;;5039500;28;20485;-81
2021/12/24 10:06:33;;;;;;;30.93;19.80;;;9.70;99.90;;;;;;5056941;28;20448;-82
2021/12/24 10:09:03;;;;;;;32.13;18.40;;;9.80;99.90;;;;;;5056180;28;20463;-80
2021/12/24 10:11:31;;;;;;;33.00;20.30;;;9.80;99.90;;;;;;5056245;28;20452;-81
2021/12/24 10:14:05;;;;;;;36.37;19.70;;;9.80;99.90;;;;;;5044847;28;20533;-81
2021/12/24 10:16:40;;;;;;;37.97;22.37;;;9.80;99.90;;;;;;5050566;28;20487;-80
2021/12/24 10:19:08;;;;;;;30.40;19.70;;;9.80;99.90;;;;;;5041584;28;20459;-80
2021/12/24 10:21:36;;;;;;;40.00;20.50;;;9.80;99.90;;;;;;5035665;28;20989;-81
2021/12/24 10:24:04;;;;;;;35.80;21.30;;;9.90;99.90;;;;;;5046907;28;20472;-80
2021/12/24 10:26:33;;;;;;;32.03;19.80;;;9.80;99.90;;;;;;5050783;28;20481;-82
2021/12/24 10:29:03;;;;;;;32.83;19.70;;;9.80;99.90;;;;;;5046725;28;20461;-81
2021/12/24 10:31:34;;;;;;;32.60;21.80;;;9.70;99.90;;;;;;5047766;28;20441;-80
2021/12/24 10:34:22;;;;;;;30.70;20.50;;;9.60;99.90;;;;;;5048207;28;20532;-79
2021/12/24 10:37:02;;;;;;;28.03;19.03;;;9.60;99.90;;;;;;5035403;28;20508;-79
2021/12/24 10:39:36;;;;;;;31.87;20.03;;;9.60;99.90;;;;;;5034856;28;20464;-79
2021/12/24 10:42:08;;;;;;;29.73;19.77;;;9.60;99.90;;;;;;5052850;28;20975;-78
2021/12/24 10:44:37;;;;;;;35.37;20.80;;;9.60;99.90;;;;;;5045818;28;20479;-80
2021/12/24 10:47:08;;;;;;;37.13;22.40;;;9.50;99.90;;;;;;5041403;28;20980;-80
2021/12/24 10:52:31;;;;;;;29.23;18.47;;;9.50;99.90;;;;;;5033513;28;20964;-80
2021/12/24 10:54:59;;;;;;;38.77;18.27;;;9.50;99.90;;;;;;5036341;28;20441;-80
2021/12/24 10:57:28;;;;;;;28.77;17.17;;;9.50;99.90;;;;;;5042497;28;20986;-82
2021/12/24 10:59:57;;;;;;;26.63;18.93;;;9.50;99.90;;;;;;5055690;28;20518;-81
2021/12/24 11:02:30;;;;;;;34.40;18.20;;;9.50;99.90;;;;;;5038252;28;20473;-82
2021/12/24 11:04:57;;;;;;;25.40;16.13;;;9.50;99.90;;;;;;5035831;28;20472;-80
2021/12/24 11:07:38;;;;;;;32.53;16.60;;;9.60;99.90;;;;;;5037916;28;20461;-79
2021/12/24 11:10:13;;;;;;;24.40;15.80;;;9.70;99.90;;;;;;5016645;28;20456;-80
2021/12/24 11:12:42;;;;;;;22.60;13.73;;;9.80;99.90;;;;;;5033665;28;20496;-81
2021/12/24 11:15:27;;;;;;;25.47;14.50;;;9.90;99.90;;;;;;5035484;28;20495;-81
2021/12/24 11:17:57;;;;;;;26.43;14.27;;;10.10;99.90;;;;;;5035987;28;20454;-82
2021/12/24 11:20:24;;;;;;;25.10;14.30;;;10.00;99.90;;;;;;5035743;28;20452;-81
2021/12/24 11:22:54;;;;;;;18.50;12.80;;;10.10;99.90;;;;;;5035425;28;20481;-79
2021/12/24 11:25:22;;;;;;;20.00;12.17;;;10.10;99.90;;;;;;5042494;28;20827;-81
2021/12/24 11:27:50;;;;;;;19.90;10.97;;;10.00;99.90;;;;;;5058506;28;20980;-82
2021/12/24 11:30:17;;;;;;;19.80;12.20;;;10.10;99.90;;;;;;5049750;28;20447;-81
2021/12/24 11:32:45;;;;;;;20.50;12.70;;;10.10;99.90;;;;;;5046903;28;20856;-81
2021/12/24 11:35:14;;;;;;;23.83;13.43;;;10.10;99.90;;;;;;5042132;28;20470;-81
2021/12/24 11:37:44;;;;;;;27.87;16.20;;;10.00;99.90;;;;;;5057512;28;20515;-81
2021/12/24 11:40:13;;;;;;;19.33;15.30;;;9.90;99.90;;;;;;5052170;28;20456;-82
2021/12/24 11:42:40;;;;;;;25.90;14.17;;;9.90;99.90;;;;;;5055072;28;20477;-82
2021/12/24 11:45:08;;;;;;;25.37;14.93;;;9.80;99.90;;;;;;5058485;28;20456;-82
2021/12/24 11:47:35;;;;;;;21.27;13.03;;;9.80;99.90;;;;;;5051681;28;20456;-79
2021/12/24 11:50:03;;;;;;;29.90;14.10;;;9.80;99.90;;;;;;5055247;28;20836;-78
2021/12/24 11:52:32;;;;;;;24.27;15.17;;;9.90;99.90;;;;;;5055156;28;20474;-79
2021/12/24 11:54:59;;;;;;;21.97;13.20;;;9.90;99.90;;;;;;5060185;28;20484;-80
2021/12/24 11:57:27;;;;;;;26.60;13.37;;;9.80;99.90;;;;;;5041586;28;20444;-78
2021/12/24 11:59:54;;;;;;;25.70;13.80;;;9.80;99.90;;;;;;5040801;28;20517;-82
2021/12/24 12:02:36;;;;;;;21.70;13.67;;;9.90;99.90;;;;;;5034350;28;20624;-80
2021/12/24 12:05:18;;;;;;;23.73;14.70;;;9.90;99.90;;;;;;5035003;28;20483;-79
2021/12/24 12:07:47;;;;;;;30.43;15.33;;;9.90;99.90;;;;;;5038257;28;20434;-81
2021/12/24 12:10:14;;;;;;;30.23;16.80;;;9.90;99.90;;;;;;5044343;28;20448;-79
2021/12/24 12:12:41;;;;;;;21.17;15.17;;;9.90;99.90;;;;;;5024230;28;20844;-80
2021/12/24 12:15:25;;;;;;;26.00;14.97;;;9.90;99.90;;;;;;5040330;28;20453;-81
2021/12/24 12:17:54;;;;;;;25.13;14.07;;;9.90;99.90;;;;;;5039714;28;20457;-79
2021/12/24 12:20:42;;;;;;;25.67;13.90;;;9.90;99.90;;;;;;5049028;28;20461;-81
2021/12/24 12:23:16;;;;;;;20.53;14.03;;;10.10;99.90;;;;;;5029869;28;20480;-82
2021/12/24 12:25:43;;;;;;;24.60;15.00;;;10.00;99.90;;;;;;5043145;28;20809;-79
2021/12/24 12:28:16;;;;;;;24.57;14.17;;;10.10;99.90;;;;;;5044693;28;20533;-80
2021/12/24 12:30:49;;;;;;;26.37;14.70;;;10.10;99.90;;;;;;5061465;28;20474;-80
2021/12/24 12:33:18;;;;;;;24.80;14.03;;;10.00;99.90;;;;;;5049345;28;20474;-80
2021/12/24 12:35:47;;;;;;;20.33;15.80;;;10.00;99.90;;;;;;5026400;28;20480;-81
2021/12/24 12:38:34;;;;;;;21.13;14.13;;;9.90;99.90;;;;;;5046749;28;20531;-79
2021/12/24 12:41:23;;;;;;;28.10;15.00;;;9.90;99.90;;;;;;5058971;28;20454;-79
2021/12/24 12:43:52;;;;;;;19.40;14.27;;;10.00;99.90;;;;;;5020468;28;20550;-78
2021/12/24 12:46:21;;;;;;;19.30;13.57;;;10.00;99.90;;;;;;5024280;28;20463;-79
2021/12/24 12:48:51;;;;;;;27.27;17.50;;;10.00;99.90;;;;;;5039699;28;20478;-79
2021/12/24 12:51:20;;;;;;;27.67;17.60;;;10.00;99.90;;;;;;5034070;28;20455;-80
2021/12/24 12:53:51;;;;;;;23.00;16.27;;;9.90;99.90;;;;;;5031567;28;20477;-79
2021/12/24 12:56:27;;;;;;;35.40;21.00;;;10.00;99.90;;;;;;5033542;28;20569;-77
2021/12/24 12:58:59;;;;;;;30.20;17.97;;;9.90;99.90;;;;;;5024558;28;20472;-78
2021/12/24 13:01:26;;;;;;;24.83;17.17;;;9.80;99.90;;;;;;5030969;28;20455;-79
2021/12/24 13:04:12;;;;;;;26.80;19.47;;;9.80;99.90;;;;;;5026398;28;20571;-78
2021/12/24 13:06:56;;;;;;;32.23;20.27;;;9.80;99.90;;;;;;5041307;28;20451;-80
2021/12/24 13:09:33;;;;;;;26.67;22.00;;;9.80;99.90;;;;;;5043965;28;20446;-80
2021/12/24 13:12:00;;;;;;;24.80;19.20;;;9.70;99.90;;;;;;5043043;28;20448;-81
2021/12/24 13:14:29;;;;;;;34.87;20.90;;;9.70;99.90;;;;;;5038706;28;20463;-80
2021/12/24 13:17:16;;;;;;;32.90;22.13;;;9.60;99.90;;;;;;5035790;28;20588;-79
2021/12/24 13:22:42;;;;;;;35.20;22.57;;;9.50;99.90;;;;;;5008386;28;20457;-81
2021/12/24 13:25:13;;;;;;;30.70;23.93;;;9.50;99.90;;;;;;5026286;28;20477;-81
2021/12/24 13:27:44;;;;;;;36.70;22.90;;;9.30;99.90;;;;;;5032281;28;20457;-80
2021/12/24 13:30:16;;;;;;;38.43;23.80;;;9.30;99.90;;;;;;5029825;28;20445;-80
2021/12/24 13:32:47;;;;;;;40.10;23.27;;;9.30;99.90;;;;;;5026103;28;21035;-83
2021/12/24 13:35:15;;;;;;;40.30;23.80;;;9.30;99.90;;;;;;5043690;28;20484;-81
2021/12/24 13:37:46;;;;;;;50.73;27.13;;;9.30;99.90;;;;;;5045547;28;20489;-81
2021/12/24 13:40:17;;;;;;;37.23;21.43;;;9.30;99.90;;;;;;5045616;28;20531;-82
2021/12/24 13:42:47;;;;;;;29.37;21.93;;;9.30;99.90;;;;;;5045508;28;20535;-83
2021/12/24 13:45:14;;;;;;;36.97;23.53;;;9.40;99.90;;;;;;5066791;28;20551;-81
2021/12/24 13:47:53;;;;;;;41.00;23.10;;;9.40;99.90;;;;;;5055316;28;20872;-81
2021/12/24 13:56:00;;;;;;;32.73;22.70;;;9.50;99.90;;;;;;5038478;28;20502;-80
2021/12/24 13:58:27;;;;;;;36.10;23.70;;;9.50;99.90;;;;;;5042707;28;20533;-83
2021/12/24 14:00:57;;;;;;;33.07;22.43;;;9.50;99.90;;;;;;5036749;28;20467;-83
2021/12/24 14:03:25;;;;;;;36.93;22.17;;;9.50;99.90;;;;;;5035778;28;20468;-82
2021/12/24 14:05:54;;;;;;;32.63;21.47;;;9.50;99.90;;;;;;5027829;28;20453;-83
2021/12/24 14:08:23;;;;;;;33.33;23.10;;;9.50;99.90;;;;;;5036658;28;20520;-81
2021/12/24 14:11:02;;;;;;;33.03;21.90;;;9.40;99.90;;;;;;5040518;28;20463;-82
2021/12/24 14:13:35;;;;;;;28.60;20.40;;;9.40;99.90;;;;;;5041924;28;20500;-83